createdAt,value
2018-01-25T00:01:23.385Z,10.68
2018-01-25T00:03:51.820Z,10.69
2018-01-25T00:06:20.973Z,10.64
2018-01-25T00:08:49.398Z,10.80
2018-01-25T00:11:18.577Z,10.84
2018-01-25T00:13:46.937Z,10.94
2018-01-25T00:16:15.360Z,11.01
2018-01-25T00:18:44.575Z,11.05
2018-01-25T00:21:13.774Z,11.15
2018-01-25T00:23:42.958Z,11.17
2018-01-25T00:26:12.284Z,11.08
2018-01-25T00:28:40.644Z,11.01
2018-01-25T00:31:09.843Z,10.96
2018-01-25T00:33:39.058Z,10.95
2018-01-25T00:36:07.440Z,10.99
2018-01-25T00:38:35.813Z,11.04
2018-01-25T00:41:04.242Z,10.99
2018-01-25T00:43:32.649Z,10.90
2018-01-25T00:46:01.849Z,10.92
2018-01-25T00:48:30.980Z,10.92
2018-01-25T00:50:59.446Z,10.98
2018-01-25T00:53:27.874Z,10.97
2018-01-25T00:55:56.240Z,11.04
2018-01-25T00:58:24.616Z,11.05
2018-01-25T01:00:53.039Z,11.18
2018-01-25T01:03:22.235Z,11.27
2018-01-25T01:05:51.491Z,11.32
2018-01-25T01:08:19.857Z,11.29
2018-01-25T01:10:48.289Z,11.25
2018-01-25T01:13:16.688Z,11.24
2018-01-25T01:15:45.843Z,11.14
2018-01-25T01:18:14.191Z,11.02
2018-01-25T01:20:42.621Z,10.89
2018-01-25T01:23:11.068Z,10.83
2018-01-25T01:25:39.508Z,11.00
2018-01-25T01:28:07.900Z,11.09
2018-01-25T01:30:36.335Z,11.24
2018-01-25T01:33:04.702Z,11.30
2018-01-25T01:35:33.123Z,11.28
2018-01-25T01:38:01.579Z,11.22
2018-01-25T01:40:29.941Z,11.08
2018-01-25T01:42:58.555Z,11.09
2018-01-25T01:45:27.679Z,11.07
2018-01-25T01:47:56.123Z,11.05
2018-01-25T01:50:25.643Z,11.13
2018-01-25T01:52:54.085Z,11.18
2018-01-25T01:55:22.452Z,11.20
2018-01-25T01:57:50.894Z,11.22
2018-01-25T02:00:19.332Z,11.20
2018-01-25T02:02:47.762Z,11.17
2018-01-25T02:05:16.203Z,11.10
2018-01-25T02:07:44.643Z,11.08
2018-01-25T02:10:13.096Z,11.04
2018-01-25T02:12:41.485Z,11.02
2018-01-25T02:15:09.927Z,10.96
2018-01-25T02:17:38.548Z,10.96
2018-01-25T02:20:06.916Z,10.90
2018-01-25T02:22:36.104Z,11.05
2018-01-25T02:25:05.335Z,11.08
2018-01-25T02:27:33.696Z,11.03
2018-01-25T02:30:02.056Z,11.04
2018-01-25T02:32:31.403Z,10.94
2018-01-25T02:34:59.777Z,10.92
2018-01-25T02:37:28.191Z,10.81
2018-01-25T02:39:56.740Z,10.81
2018-01-25T02:42:25.140Z,10.78
2018-01-25T02:44:53.563Z,10.66
2018-01-25T02:47:21.952Z,10.58
2018-01-25T02:49:50.329Z,10.45
2018-01-25T02:52:18.700Z,10.40
2018-01-25T02:54:47.902Z,10.42
2018-01-25T02:57:16.278Z,10.40
2018-01-25T02:59:45.499Z,10.46
2018-01-25T03:02:13.870Z,10.47
2018-01-25T03:04:42.228Z,10.49
2018-01-25T03:07:11.389Z,10.47
2018-01-25T03:09:39.995Z,10.44
2018-01-25T03:12:09.191Z,10.43
2018-01-25T03:14:38.387Z,10.39
2018-01-25T03:17:07.105Z,10.36
2018-01-25T03:19:35.472Z,10.35
2018-01-25T03:22:04.663Z,10.40
2018-01-25T03:24:33.831Z,10.43
2018-01-25T03:27:02.218Z,10.45
2018-01-25T03:29:30.640Z,10.42
2018-01-25T03:31:59.004Z,10.41
2018-01-25T03:34:28.200Z,10.37
2018-01-25T03:36:56.667Z,10.37
2018-01-25T03:39:25.792Z,10.37
2018-01-25T03:41:54.153Z,10.39
2018-01-25T03:44:23.362Z,10.37
2018-01-25T03:46:51.791Z,10.38
2018-01-25T03:49:20.240Z,10.31
2018-01-25T03:51:48.637Z,10.29
2018-01-25T03:54:17.023Z,10.18
2018-01-25T03:56:45.385Z,10.17
2018-01-25T03:59:13.768Z,10.22
2018-01-25T04:01:42.185Z,10.27
2018-01-25T04:04:10.579Z,10.29
2018-01-25T04:06:39.017Z,10.39
2018-01-25T04:09:07.408Z,10.43
2018-01-25T04:11:35.855Z,10.50
2018-01-25T04:14:04.223Z,10.58
2018-01-25T04:16:32.580Z,10.56
2018-01-25T04:19:01.798Z,10.58
2018-01-25T04:21:30.161Z,10.58
2018-01-25T04:23:59.359Z,10.60
2018-01-25T04:26:28.547Z,10.59
2018-01-25T04:28:56.963Z,10.63
2018-01-25T04:31:25.422Z,10.64
2018-01-25T04:33:53.883Z,10.70
2018-01-25T04:36:23.096Z,10.74
2018-01-25T04:38:52.292Z,10.70
2018-01-25T04:41:21.450Z,10.74
2018-01-25T04:43:49.812Z,10.74
2018-01-25T04:46:18.227Z,10.81
2018-01-25T04:48:46.671Z,10.80
2018-01-25T04:51:15.048Z,10.88
2018-01-25T04:53:43.480Z,10.85
2018-01-25T04:56:12.616Z,10.82
2018-01-25T04:58:40.999Z,10.86
2018-01-25T05:01:09.415Z,10.87
2018-01-25T05:03:37.843Z,10.80
2018-01-25T05:06:06.285Z,10.79
2018-01-25T05:08:34.711Z,10.80
2018-01-25T05:11:03.076Z,10.86
2018-01-25T05:13:32.279Z,10.83
2018-01-25T05:16:00.645Z,10.80
2018-01-25T05:18:29.879Z,10.81
2018-01-25T05:20:58.346Z,10.78
2018-01-25T05:23:26.795Z,10.80
2018-01-25T05:25:55.969Z,10.83
2018-01-25T05:28:24.399Z,10.85
2018-01-25T05:30:52.780Z,10.91
2018-01-25T05:33:21.281Z,10.98
2018-01-25T05:35:49.640Z,11.03
2018-01-25T05:38:18.071Z,11.06
2018-01-25T05:40:46.535Z,11.15
2018-01-25T05:43:14.983Z,11.16
2018-01-25T05:45:43.417Z,11.16
2018-01-25T05:48:11.920Z,11.15
2018-01-25T05:50:41.133Z,11.13
2018-01-25T05:53:09.504Z,11.15
2018-01-25T05:55:38.660Z,11.13
2018-01-25T05:58:07.076Z,11.07
2018-01-25T06:00:36.218Z,11.05
2018-01-25T06:03:04.651Z,10.94
2018-01-25T06:05:33.855Z,10.94
2018-01-25T06:08:02.313Z,10.94
2018-01-25T06:10:30.739Z,10.93
2018-01-25T06:12:59.172Z,10.78
2018-01-25T06:15:27.570Z,10.52
2018-01-25T06:17:55.995Z,10.33
2018-01-25T06:20:24.432Z,10.28
2018-01-25T06:22:53.637Z,10.23
2018-01-25T06:25:22.067Z,10.11
2018-01-25T06:27:50.512Z,10.07
2018-01-25T06:30:18.885Z,10.01
2018-01-25T06:32:47.257Z,9.98
2018-01-25T06:35:16.447Z,9.99
2018-01-25T06:37:44.878Z,9.80
2018-01-25T06:40:13.287Z,9.81
2018-01-25T06:42:41.635Z,9.97
2018-01-25T06:45:10.066Z,9.77
2018-01-25T06:47:38.516Z,9.75
2018-01-25T06:50:06.877Z,9.76
2018-01-25T06:52:35.233Z,9.75
2018-01-25T06:55:03.608Z,9.77
2018-01-25T06:57:32.034Z,9.79
2018-01-25T07:00:00.454Z,9.71
2018-01-25T07:02:28.840Z,9.71
2018-01-25T07:04:57.255Z,9.70
2018-01-25T07:07:25.686Z,9.64
2018-01-25T07:09:54.136Z,9.65
2018-01-25T07:12:22.561Z,9.63
2018-01-25T07:14:50.918Z,9.67
2018-01-25T07:17:19.835Z,9.73
2018-01-25T07:19:48.272Z,9.67
2018-01-25T07:22:17.511Z,9.64
2018-01-25T07:24:45.939Z,9.59
2018-01-25T07:27:14.374Z,10.35
2018-01-25T07:29:42.827Z,10.42
2018-01-25T07:32:11.384Z,9.85
2018-01-25T07:34:39.837Z,9.75
2018-01-25T07:37:08.276Z,9.70
2018-01-25T07:39:37.462Z,9.67
2018-01-25T07:42:05.848Z,9.54
2018-01-25T07:44:35.302Z,9.62
2018-01-25T07:47:03.782Z,9.62
2018-01-25T07:49:32.463Z,9.54
2018-01-25T07:52:00.994Z,9.55
2018-01-25T07:54:30.332Z,9.58
2018-01-25T07:56:58.768Z,9.63
2018-01-25T07:59:27.291Z,9.63
2018-01-25T08:01:55.795Z,9.71
2018-01-25T08:04:24.218Z,9.55
2018-01-25T08:06:52.716Z,9.49
2018-01-25T08:11:55.969Z,9.54
2018-01-25T08:14:24.472Z,9.67
2018-01-25T08:16:53.137Z,9.65
2018-01-25T08:19:21.707Z,9.58
2018-01-25T08:21:50.302Z,9.51
2018-01-25T08:24:18.893Z,9.48
2018-01-25T08:26:47.470Z,9.49
2018-01-25T08:29:16.248Z,9.50
2018-01-25T08:31:44.680Z,9.46
2018-01-25T08:34:13.872Z,9.45
2018-01-25T08:36:43.088Z,9.37
2018-01-25T08:39:11.531Z,9.44
2018-01-25T08:41:39.920Z,9.44
2018-01-25T08:44:08.327Z,9.42
2018-01-25T08:46:36.767Z,9.44
2018-01-25T08:49:05.204Z,9.49
2018-01-25T08:51:33.623Z,9.53
2018-01-25T08:54:02.044Z,9.56
2018-01-25T08:56:30.409Z,9.61
2018-01-25T08:58:59.549Z,9.68
2018-01-25T09:01:27.905Z,9.81
2018-01-25T09:03:56.327Z,9.95
2018-01-25T09:06:24.731Z,9.87
2018-01-25T09:08:53.158Z,9.95
2018-01-25T09:11:21.590Z,10.09
2018-01-25T09:13:49.973Z,10.22
2018-01-25T09:16:18.338Z,10.22
2018-01-25T09:18:46.789Z,10.20
2018-01-25T09:21:15.170Z,10.39
2018-01-25T09:23:43.791Z,10.52
2018-01-25T09:26:12.158Z,10.55
2018-01-25T09:28:40.583Z,10.59
2018-01-25T09:31:09.047Z,10.72
2018-01-25T09:33:38.185Z,10.60
2018-01-25T09:36:06.612Z,10.52
2018-01-25T09:38:35.071Z,10.51
2018-01-25T09:41:05.016Z,10.54
2018-01-25T09:43:34.415Z,10.46
2018-01-25T09:46:03.544Z,10.52
2018-01-25T09:48:31.965Z,10.72
2018-01-25T09:51:00.340Z,10.76
2018-01-25T09:53:28.701Z,10.75
2018-01-25T09:55:57.105Z,10.75
2018-01-25T09:58:25.457Z,10.60
2018-01-25T10:00:53.846Z,10.66
2018-01-25T10:03:22.300Z,10.64
2018-01-25T10:05:50.744Z,10.64
2018-01-25T10:08:19.175Z,10.76
2018-01-25T10:10:47.615Z,10.82
2018-01-25T10:13:16.744Z,11.08
2018-01-25T10:15:45.130Z,10.99
2018-01-25T10:18:13.565Z,10.86
2018-01-25T10:20:42.759Z,10.71
2018-01-25T10:23:11.911Z,10.73
2018-01-25T10:25:40.260Z,10.71
2018-01-25T10:28:09.403Z,10.58
2018-01-25T10:30:37.752Z,10.48
2018-01-25T10:33:06.108Z,10.46
2018-01-25T10:35:35.460Z,10.74
2018-01-25T10:38:03.829Z,10.71
2018-01-25T10:40:32.185Z,10.60
2018-01-25T10:43:00.614Z,10.65
2018-01-25T10:45:29.052Z,10.76
2018-01-25T10:47:57.511Z,10.69
2018-01-25T10:50:25.940Z,10.63
2018-01-25T10:52:54.369Z,10.71
2018-01-25T10:55:23.891Z,10.70
2018-01-25T10:57:52.269Z,10.66
2018-01-25T11:00:20.704Z,10.62
2018-01-25T11:02:49.135Z,10.52
2018-01-25T11:05:17.608Z,10.48
2018-01-25T11:07:45.980Z,10.39
2018-01-25T11:10:14.400Z,11.35
2018-01-25T11:12:42.872Z,10.95
2018-01-25T11:15:11.236Z,10.89
2018-01-25T11:17:39.689Z,10.74
2018-01-25T11:20:08.076Z,10.91
2018-01-25T11:22:37.302Z,10.88
2018-01-25T11:25:05.729Z,10.75
2018-01-25T11:27:34.877Z,10.79
2018-01-25T11:30:03.333Z,10.76
2018-01-25T11:32:31.759Z,11.01
2018-01-25T11:35:00.128Z,10.97
2018-01-25T11:37:28.571Z,11.08
2018-01-25T11:39:57.182Z,11.16
2018-01-25T11:42:25.622Z,11.33
2018-01-25T11:44:54.761Z,11.34
2018-01-25T11:47:23.204Z,11.30
2018-01-25T11:49:51.584Z,11.14
2018-01-25T11:52:20.749Z,11.19
2018-01-25T11:54:49.187Z,11.19
2018-01-25T11:57:17.554Z,11.15
2018-01-25T11:59:45.995Z,11.04
2018-01-25T12:02:14.412Z,11.01
2018-01-25T12:04:42.856Z,11.00
2018-01-25T12:07:11.349Z,10.94
2018-01-25T12:09:40.567Z,11.08
2018-01-25T12:12:08.996Z,11.18
2018-01-25T12:14:37.402Z,11.03
2018-01-25T12:17:06.542Z,10.93
2018-01-25T12:19:34.960Z,11.00
2018-01-25T12:22:03.404Z,10.95
2018-01-25T12:24:31.841Z,11.10
2018-01-25T12:27:01.065Z,11.09
2018-01-25T12:29:29.511Z,10.93
2018-01-25T12:31:57.952Z,10.80
2018-01-25T12:34:26.332Z,10.99
2018-01-25T12:36:54.786Z,11.00
2018-01-25T12:39:23.156Z,11.07
2018-01-25T12:41:51.586Z,10.94
2018-01-25T12:44:20.754Z,10.81
2018-01-25T12:46:49.117Z,10.88
2018-01-25T12:49:18.307Z,11.04
2018-01-25T12:51:46.766Z,11.08
2018-01-25T12:54:15.199Z,11.04
2018-01-25T12:56:43.624Z,10.86
2018-01-25T12:59:12.773Z,10.92
2018-01-25T13:01:41.215Z,11.06
2018-01-25T13:04:09.688Z,10.74
2018-01-25T13:06:38.896Z,10.75
2018-01-25T13:09:08.123Z,10.84
2018-01-25T13:11:36.525Z,10.74
2018-01-25T13:14:04.885Z,10.98
2018-01-25T13:16:33.285Z,11.02
2018-01-25T13:19:01.641Z,11.18
2018-01-25T13:21:30.072Z,11.26
2018-01-25T13:23:58.458Z,11.26
2018-01-25T13:26:26.813Z,11.02
2018-01-25T13:28:55.235Z,11.08
2018-01-25T13:31:23.885Z,11.00
2018-01-25T13:33:52.308Z,11.10
2018-01-25T13:36:20.691Z,10.98
2018-01-25T13:38:49.149Z,11.11
2018-01-25T13:41:18.389Z,10.94
2018-01-25T13:43:46.761Z,10.90
2018-01-25T13:46:15.200Z,10.80
2018-01-25T13:48:43.635Z,10.71
2018-01-25T13:51:12.059Z,10.75
2018-01-25T13:53:40.468Z,10.73
2018-01-25T13:56:08.895Z,10.68
2018-01-25T13:58:37.335Z,10.57
2018-01-25T14:01:05.705Z,10.60
2018-01-25T14:03:34.140Z,10.50
2018-01-25T14:06:02.482Z,10.62
2018-01-25T14:08:30.912Z,10.58
2018-01-25T14:10:59.285Z,10.62
2018-01-25T14:13:27.702Z,10.60
2018-01-25T14:15:56.159Z,10.57
2018-01-25T14:18:25.288Z,10.68
2018-01-25T14:20:53.702Z,10.64
2018-01-25T14:23:22.237Z,10.63
2018-01-25T14:25:51.358Z,10.67
2018-01-25T14:28:19.794Z,10.54
2018-01-25T14:30:48.945Z,10.47
2018-01-25T14:33:17.313Z,10.47
2018-01-25T14:35:45.676Z,10.44
2018-01-25T14:38:14.338Z,10.44
2018-01-25T14:40:43.535Z,10.46
2018-01-25T14:43:12.739Z,10.31
2018-01-25T14:45:41.884Z,10.28
2018-01-25T14:48:10.241Z,10.21
2018-01-25T14:50:38.605Z,10.27
2018-01-25T14:53:06.958Z,10.27
2018-01-25T14:55:36.113Z,10.18
2018-01-25T14:58:04.474Z,10.16
2018-01-25T15:00:32.891Z,10.13
2018-01-25T15:03:01.296Z,10.06
2018-01-25T15:05:29.652Z,10.13
2018-01-25T15:07:58.004Z,9.94
2018-01-25T15:10:26.366Z,9.86
2018-01-25T15:12:54.764Z,9.84
2018-01-25T15:15:23.144Z,9.77
2018-01-25T15:17:51.579Z,9.83
2018-01-25T15:20:20.024Z,9.79
2018-01-25T15:22:48.519Z,9.76
2018-01-25T15:25:22.472Z,10.38
2018-01-25T15:27:50.858Z,10.15
2018-01-25T15:30:19.221Z,9.97
2018-01-25T15:32:47.600Z,9.89
2018-01-25T15:35:16.388Z,9.84
2018-01-25T15:37:44.738Z,9.82
2018-01-25T15:40:13.169Z,9.78
2018-01-25T15:42:41.599Z,9.77
2018-01-25T15:45:09.993Z,9.78
2018-01-25T15:47:39.124Z,9.69
2018-01-25T15:50:07.487Z,9.67
2018-01-25T15:52:35.924Z,9.69
2018-01-25T15:55:04.292Z,9.63
2018-01-25T15:57:32.657Z,9.64
2018-01-25T16:00:01.043Z,9.59
2018-01-25T16:02:29.419Z,9.64
2018-01-25T16:04:57.843Z,9.66
2018-01-25T16:07:26.292Z,9.67
2018-01-25T16:09:54.726Z,9.69
2018-01-25T16:12:23.190Z,9.60
2018-01-25T16:14:51.634Z,9.56
2018-01-25T16:17:20.002Z,9.51
2018-01-25T16:19:48.396Z,9.54
2018-01-25T16:22:16.764Z,9.56
2018-01-25T16:24:45.149Z,9.61
2018-01-25T16:27:13.529Z,9.60
2018-01-25T16:29:41.947Z,9.56
2018-01-25T16:32:10.356Z,9.49
2018-01-25T16:34:38.823Z,9.40
2018-01-25T16:37:07.299Z,9.36
2018-01-25T16:39:35.739Z,9.43
2018-01-25T16:42:04.193Z,9.44
2018-01-25T16:44:32.564Z,9.45
2018-01-25T16:47:00.984Z,9.48
2018-01-25T16:49:30.430Z,9.42
2018-01-25T16:51:58.778Z,9.42
2018-01-25T16:54:27.913Z,9.42
2018-01-25T16:56:56.290Z,9.42
2018-01-25T16:59:24.746Z,9.36
2018-01-25T17:01:53.179Z,9.35
2018-01-25T17:04:21.553Z,9.29
2018-01-25T17:06:49.975Z,9.30
2018-01-25T17:09:19.088Z,9.30
2018-01-25T17:11:47.448Z,9.32
2018-01-25T17:14:16.621Z,9.35
2018-01-25T17:16:45.010Z,9.36
2018-01-25T17:19:13.448Z,9.18
2018-01-25T17:21:41.841Z,9.26
2018-01-25T17:24:10.285Z,9.36
2018-01-25T17:26:38.781Z,9.41
2018-01-25T17:29:08.025Z,9.38
2018-01-25T17:31:36.486Z,9.37
2018-01-25T17:34:04.940Z,9.19
2018-01-25T17:36:33.304Z,9.27
2018-01-25T17:39:01.751Z,9.24
2018-01-25T17:41:30.229Z,9.31
2018-01-25T17:43:59.478Z,9.32
2018-01-25T17:46:27.935Z,9.24
2018-01-25T17:48:56.406Z,9.28
2018-01-25T17:51:25.102Z,9.28
2018-01-25T17:53:53.641Z,9.22
2018-01-25T17:56:22.824Z,9.15
2018-01-25T17:58:51.249Z,9.20
2018-01-25T18:01:20.380Z,9.11
2018-01-25T18:03:48.841Z,9.12
2018-01-25T18:06:17.307Z,9.17
2018-01-25T18:08:45.704Z,9.01
2018-01-25T18:11:14.065Z,9.00
2018-01-25T18:13:43.291Z,9.00
2018-01-25T18:16:11.663Z,9.00
2018-01-25T18:18:40.044Z,9.01
2018-01-25T18:21:08.485Z,9.10
2018-01-25T18:23:37.435Z,9.05
2018-01-25T18:26:05.854Z,8.90
2018-01-25T18:28:34.259Z,8.95
2018-01-25T18:31:03.408Z,8.88
2018-01-25T18:33:31.825Z,8.79
2018-01-25T18:36:00.968Z,8.71
2018-01-25T18:38:29.457Z,8.78
2018-01-25T18:40:57.817Z,8.87
2018-01-25T18:43:26.235Z,8.91
2018-01-25T18:45:54.707Z,8.98
2018-01-25T18:48:23.081Z,8.98
2018-01-25T18:50:52.263Z,8.97
2018-01-25T18:53:20.715Z,8.98
2018-01-25T18:55:49.118Z,9.01
2018-01-25T18:58:17.548Z,9.03
2018-01-25T19:00:46.693Z,9.06
2018-01-25T19:03:15.050Z,9.07
2018-01-25T19:05:43.478Z,9.10
2018-01-25T19:08:11.856Z,9.14
2018-01-25T19:10:40.217Z,9.12
2018-01-25T19:13:08.659Z,9.09
2018-01-25T19:15:37.796Z,9.11
2018-01-25T19:18:06.207Z,9.10
2018-01-25T19:20:34.601Z,9.09
2018-01-25T19:23:02.954Z,9.05
2018-01-25T19:25:31.328Z,9.06
2018-01-25T19:27:59.680Z,9.07
2018-01-25T19:30:28.039Z,9.08
2018-01-25T19:32:56.483Z,9.06
2018-01-25T19:35:24.861Z,9.07
2018-01-25T19:37:53.220Z,9.08
2018-01-25T19:40:21.627Z,9.04
2018-01-25T19:42:49.980Z,9.02
2018-01-25T19:45:18.444Z,9.04
2018-01-25T19:47:46.800Z,9.10
2018-01-25T19:50:15.238Z,9.07
2018-01-25T19:52:43.696Z,9.00
2018-01-25T19:55:13.032Z,9.02
2018-01-25T19:57:42.213Z,9.00
2018-01-25T20:00:10.604Z,8.97
2018-01-25T20:02:38.984Z,8.92
2018-01-25T20:05:08.218Z,8.94
2018-01-25T20:07:36.663Z,8.91
2018-01-25T20:10:05.796Z,8.91
2018-01-25T20:12:34.161Z,8.90
2018-01-25T20:15:02.561Z,8.85
2018-01-25T20:17:30.988Z,8.83
2018-01-25T20:19:59.439Z,8.85
2018-01-25T20:22:27.875Z,8.82
2018-01-25T20:24:57.024Z,8.81
2018-01-25T20:27:25.459Z,8.83
2018-01-25T20:29:53.840Z,8.83
2018-01-25T20:32:23.015Z,8.82
2018-01-25T20:34:52.251Z,8.71
2018-01-25T20:37:20.612Z,8.68
2018-01-25T20:39:49.740Z,8.67
2018-01-25T20:42:18.093Z,8.63
2018-01-25T20:44:46.453Z,8.70
2018-01-25T20:47:15.610Z,8.63
2018-01-25T20:49:44.027Z,8.64
2018-01-25T20:52:12.424Z,8.67
2018-01-25T20:54:40.841Z,8.72
2018-01-25T20:57:09.184Z,8.68
2018-01-25T20:59:37.571Z,8.66
2018-01-25T21:02:05.992Z,8.64
2018-01-25T21:04:34.369Z,8.53
2018-01-25T21:07:02.872Z,8.53
2018-01-25T21:09:31.220Z,8.54
2018-01-25T21:11:59.570Z,8.47
2018-01-25T21:14:28.006Z,8.51
2018-01-25T21:16:57.254Z,8.40
2018-01-25T21:19:25.721Z,8.45
2018-01-25T21:21:54.227Z,8.37
2018-01-25T21:24:22.656Z,8.36
2018-01-25T21:26:51.041Z,8.40
2018-01-25T21:29:19.872Z,8.39
2018-01-25T21:31:48.246Z,8.36
2018-01-25T21:34:16.606Z,8.38
2018-01-25T21:36:45.203Z,8.37
2018-01-25T21:39:13.584Z,8.44
2018-01-25T21:41:42.006Z,8.41
2018-01-25T21:44:10.476Z,8.42
2018-01-25T21:46:38.937Z,8.45
2018-01-25T21:49:07.403Z,8.46
2018-01-25T21:51:35.843Z,8.43
2018-01-25T21:54:04.257Z,8.48
2018-01-25T21:56:32.641Z,8.52
2018-01-25T21:59:01.069Z,8.52
2018-01-25T22:01:29.449Z,8.51
2018-01-25T22:03:57.852Z,8.54
2018-01-25T22:06:27.040Z,8.41
2018-01-25T22:08:56.220Z,8.36
2018-01-25T22:11:25.011Z,8.31
2018-01-25T22:13:53.442Z,8.25
2018-01-25T22:16:21.817Z,8.23
2018-01-25T22:18:50.179Z,8.25
2018-01-25T22:21:19.397Z,8.30
2018-01-25T22:23:47.778Z,8.22
2018-01-25T22:26:16.215Z,8.24
2018-01-25T22:28:45.370Z,8.32
2018-01-25T22:31:13.770Z,8.33
2018-01-25T22:33:42.152Z,8.31
2018-01-25T22:36:10.575Z,8.31
2018-01-25T22:38:39.027Z,8.27
2018-01-25T22:41:07.466Z,8.26
2018-01-25T22:43:35.928Z,8.24
2018-01-25T22:46:04.362Z,8.11
2018-01-25T22:48:32.741Z,8.10
2018-01-25T22:51:01.157Z,8.03
2018-01-25T22:53:30.318Z,7.95
2018-01-25T22:55:58.680Z,7.93
2018-01-25T22:58:27.115Z,7.94
2018-01-25T23:00:55.575Z,7.89
2018-01-25T23:03:24.779Z,7.85
2018-01-25T23:05:53.918Z,7.80
2018-01-25T23:08:22.355Z,7.82
2018-01-25T23:10:50.799Z,7.87
2018-01-25T23:13:19.184Z,7.88
2018-01-25T23:15:47.608Z,7.94
2018-01-25T23:18:16.053Z,7.91
2018-01-25T23:20:44.452Z,7.91
2018-01-25T23:23:12.857Z,7.89
2018-01-25T23:25:41.288Z,7.92
2018-01-25T23:28:09.688Z,7.89
2018-01-25T23:30:38.139Z,7.86
2018-01-25T23:33:06.509Z,7.83
2018-01-25T23:35:34.875Z,7.87
2018-01-25T23:38:03.292Z,7.95
2018-01-25T23:40:31.692Z,7.85
2018-01-25T23:43:00.886Z,7.87
2018-01-25T23:45:30.116Z,7.88
2018-01-25T23:47:58.497Z,7.86
2018-01-25T23:50:26.919Z,7.89
2018-01-25T23:52:55.371Z,7.91
2018-01-25T23:55:23.806Z,7.91
2018-01-25T23:57:52.258Z,7.86
